createdAt,value
2022-10-13T00:03:23.286Z,1022.00
2022-10-13T00:08:30.509Z,1021.93
2022-10-13T00:13:37.693Z,1021.87
2022-10-13T00:18:44.881Z,1021.77
2022-10-13T00:23:52.113Z,1021.83
2022-10-13T00:28:59.413Z,1021.82
2022-10-13T00:34:06.458Z,1021.87
2022-10-13T00:39:13.733Z,1021.93
2022-10-13T00:44:20.912Z,1021.93
2022-10-13T00:49:28.157Z,1021.92
2022-10-13T00:54:35.347Z,1021.97
2022-10-13T00:59:42.524Z,1022.03
2022-10-13T01:04:49.762Z,1022.05
2022-10-13T01:09:56.950Z,1022.12
2022-10-13T01:15:04.164Z,1022.17
2022-10-13T01:20:11.321Z,1022.15
2022-10-13T01:25:18.536Z,1022.27
2022-10-13T01:30:25.751Z,1022.28
2022-10-13T01:35:32.990Z,1022.23
2022-10-13T01:40:42.643Z,1022.19
2022-10-13T01:45:49.843Z,1022.17
2022-10-13T01:50:57.031Z,1022.08
2022-10-13T01:56:04.279Z,1022.06
2022-10-13T02:01:11.471Z,1021.99
2022-10-13T02:06:18.665Z,1021.99
2022-10-13T02:11:25.893Z,1021.87
2022-10-13T02:16:33.069Z,1021.76
2022-10-13T02:21:40.280Z,1021.75
2022-10-13T02:26:47.537Z,1021.74
2022-10-13T02:31:54.831Z,1021.68
2022-10-13T02:37:02.193Z,1021.67
2022-10-13T02:42:09.489Z,1021.61
2022-10-13T02:47:16.646Z,1021.58
2022-10-13T02:52:23.823Z,1021.55
2022-10-13T02:57:31.037Z,1021.61
2022-10-13T03:02:38.227Z,1021.64
2022-10-13T03:07:45.503Z,1021.68
2022-10-13T03:12:52.765Z,1021.71
2022-10-13T03:17:59.945Z,1021.67
2022-10-13T03:23:07.167Z,1021.70
2022-10-13T03:28:14.555Z,1021.80
2022-10-13T03:33:21.635Z,1021.83
2022-10-13T03:38:28.842Z,1021.94
2022-10-13T03:43:36.035Z,1021.97
2022-10-13T03:48:43.255Z,1021.90
2022-10-13T03:53:50.476Z,1021.92
2022-10-13T03:58:57.647Z,1021.96
2022-10-13T04:04:04.868Z,1021.95
2022-10-13T04:09:12.089Z,1022.02
2022-10-13T04:14:19.422Z,1022.06
2022-10-13T04:19:26.479Z,1022.09
2022-10-13T04:24:33.682Z,1022.14
2022-10-13T04:29:40.913Z,1022.18
2022-10-13T04:34:49.010Z,1022.11
2022-10-13T04:39:56.225Z,1021.98
2022-10-13T04:45:03.559Z,1021.96
2022-10-13T04:50:10.629Z,1021.92
2022-10-13T04:55:17.962Z,1021.94
2022-10-13T05:00:25.264Z,1021.88
2022-10-13T05:05:32.443Z,1021.93
2022-10-13T05:10:39.653Z,1021.93
2022-10-13T05:15:46.828Z,1021.93
2022-10-13T05:20:53.993Z,1021.86
2022-10-13T05:26:01.184Z,1021.86
2022-10-13T05:31:08.397Z,1021.77
2022-10-13T05:36:15.547Z,1021.72
2022-10-13T05:41:22.719Z,1021.71
2022-10-13T05:46:29.909Z,1021.73
2022-10-13T05:51:37.085Z,1021.80
2022-10-13T05:56:44.309Z,1021.81
2022-10-13T06:01:51.565Z,1021.75
2022-10-13T06:06:58.697Z,1021.71
2022-10-13T06:12:05.878Z,1021.75
2022-10-13T06:17:13.078Z,1021.74
2022-10-13T06:22:20.599Z,1021.66
2022-10-13T06:27:27.478Z,1021.67
2022-10-13T06:32:34.757Z,1021.72
2022-10-13T06:37:41.968Z,1021.67
2022-10-13T06:42:49.133Z,1021.68
2022-10-13T06:47:56.365Z,1021.65
2022-10-13T06:53:03.558Z,1021.67
2022-10-13T06:58:10.842Z,1021.70
2022-10-13T07:03:18.094Z,1021.69
2022-10-13T07:08:25.244Z,1021.59
2022-10-13T07:13:34.988Z,1021.63
2022-10-13T07:18:39.697Z,1021.64
2022-10-13T07:23:46.915Z,1021.64
2022-10-13T07:28:54.183Z,1021.71
2022-10-13T07:34:01.361Z,1021.68
2022-10-13T07:39:08.488Z,1021.70
2022-10-13T07:44:15.663Z,1021.65
2022-10-13T07:49:22.923Z,1021.65
2022-10-13T07:54:30.108Z,1021.59
2022-10-13T07:59:37.245Z,1021.52
2022-10-13T08:04:44.448Z,1021.47
2022-10-13T08:09:51.610Z,1021.46
2022-10-13T08:15:01.813Z,1021.44
2022-10-13T08:20:06.058Z,1021.51
2022-10-13T08:25:13.267Z,1021.42
2022-10-13T08:30:20.680Z,1021.30
2022-10-13T08:35:30.146Z,1021.34
2022-10-13T08:40:34.838Z,1021.23
2022-10-13T08:45:42.492Z,1021.21
2022-10-13T08:50:49.306Z,1021.14
2022-10-13T08:55:56.657Z,1021.20
2022-10-13T09:01:03.912Z,1021.14
2022-10-13T09:06:11.066Z,1021.23
2022-10-13T09:11:18.237Z,1021.17
2022-10-13T09:16:25.448Z,1021.14
2022-10-13T09:21:32.767Z,1021.06
2022-10-13T09:26:39.909Z,1021.06
2022-10-13T09:31:47.168Z,1021.05
2022-10-13T09:36:54.508Z,1021.11
2022-10-13T09:42:01.619Z,1021.08
2022-10-13T09:47:08.829Z,1021.01
2022-10-13T09:52:16.110Z,1021.00
2022-10-13T09:57:23.319Z,1021.04
2022-10-13T10:02:30.708Z,1020.99
2022-10-13T10:07:37.827Z,1021.01
2022-10-13T10:12:45.043Z,1021.01
2022-10-13T10:17:52.295Z,1021.00
2022-10-13T10:22:59.601Z,1021.01
2022-10-13T10:28:06.844Z,1021.01
2022-10-13T10:33:14.110Z,1021.01
2022-10-13T10:38:21.519Z,1020.92
2022-10-13T10:43:28.994Z,1020.92
2022-10-13T10:48:36.214Z,1020.82
2022-10-13T10:53:43.498Z,1020.83
2022-10-13T10:58:50.924Z,1020.72
2022-10-13T11:03:58.128Z,1020.73
2022-10-13T11:09:05.329Z,1020.63
2022-10-13T11:14:12.576Z,1020.59
2022-10-13T11:19:19.740Z,1020.56
2022-10-13T11:24:26.995Z,1020.56
2022-10-13T11:29:34.238Z,1020.47
2022-10-13T11:34:41.440Z,1020.48
2022-10-13T11:39:48.683Z,1020.46
2022-10-13T11:44:55.889Z,1020.40
2022-10-13T11:50:03.081Z,1020.23
2022-10-13T11:55:10.346Z,1020.05
2022-10-13T12:00:17.519Z,1019.84
2022-10-13T12:05:24.723Z,1019.77
2022-10-13T12:10:32.009Z,1019.81
2022-10-13T12:15:39.184Z,1019.71
2022-10-13T12:20:46.451Z,1019.69
2022-10-13T12:25:53.795Z,1019.65
2022-10-13T12:31:00.905Z,1019.65
2022-10-13T12:36:08.247Z,1019.59
2022-10-13T12:41:15.660Z,1019.45
2022-10-13T12:46:22.669Z,1019.36
2022-10-13T12:51:29.923Z,1019.41
2022-10-13T12:56:37.117Z,1019.35
2022-10-13T13:01:44.366Z,1019.33
2022-10-13T13:06:51.548Z,1019.29
2022-10-13T13:11:58.837Z,1019.25
2022-10-13T13:17:05.987Z,1019.18
2022-10-13T13:22:13.468Z,1019.16
2022-10-13T13:27:22.295Z,1019.01
2022-10-13T13:32:29.095Z,1018.99
2022-10-13T13:37:36.336Z,1019.07
2022-10-13T13:42:43.592Z,1019.02
2022-10-13T13:47:50.809Z,1019.02
2022-10-13T13:52:58.018Z,1019.06
2022-10-13T13:58:05.332Z,1019.10
2022-10-13T14:03:17.097Z,1019.04
2022-10-13T14:08:19.834Z,1018.99
2022-10-13T14:13:27.085Z,1018.96
2022-10-13T14:18:34.372Z,1018.88
2022-10-13T14:23:41.572Z,1018.91
2022-10-13T14:28:48.928Z,1018.94
2022-10-13T14:33:56.085Z,1018.93
2022-10-13T14:39:03.287Z,1018.94
2022-10-13T14:44:10.630Z,1018.92
2022-10-13T14:49:17.815Z,1018.87
2022-10-13T14:54:25.048Z,1018.87
2022-10-13T14:59:32.331Z,1018.76
2022-10-13T15:04:39.527Z,1018.63
2022-10-13T15:09:52.947Z,1018.64
2022-10-13T15:14:53.976Z,1018.72
2022-10-13T15:20:01.137Z,1018.69
2022-10-13T15:25:08.365Z,1018.76
2022-10-13T15:30:15.526Z,1018.67
2022-10-13T15:35:22.763Z,1018.76
2022-10-13T15:40:29.932Z,1018.67
2022-10-13T15:45:37.207Z,1018.64
2022-10-13T15:50:44.337Z,1018.66
2022-10-13T15:55:51.558Z,1018.66
2022-10-13T16:00:58.939Z,1018.69
2022-10-13T16:06:06.019Z,1018.66
2022-10-13T16:11:13.265Z,1018.62
2022-10-13T16:16:20.486Z,1018.50
2022-10-13T16:21:27.705Z,1018.56
2022-10-13T16:26:34.865Z,1018.62
2022-10-13T16:31:42.104Z,1018.62
2022-10-13T16:36:49.290Z,1018.63
2022-10-13T16:41:56.489Z,1018.70
2022-10-13T16:47:03.720Z,1018.66
2022-10-13T16:52:11.574Z,1018.64
2022-10-13T16:57:19.087Z,1018.72
2022-10-13T17:02:26.008Z,1018.79
2022-10-13T17:07:33.225Z,1018.72
2022-10-13T17:12:40.485Z,1018.72
2022-10-13T17:17:47.769Z,1018.70
2022-10-13T17:22:54.964Z,1018.65
2022-10-13T17:28:02.449Z,1018.61
2022-10-13T17:33:10.088Z,1018.57
2022-10-13T17:38:17.572Z,1018.63
2022-10-13T17:43:25.090Z,1018.68
2022-10-13T17:48:32.847Z,1018.74
2022-10-13T17:53:40.429Z,1018.78
2022-10-13T17:58:47.930Z,1018.78
2022-10-13T18:03:55.322Z,1018.80
2022-10-13T18:09:02.859Z,1018.77
2022-10-13T18:14:10.674Z,1018.76
2022-10-13T18:19:18.020Z,1018.64
2022-10-13T18:24:25.698Z,1018.43
2022-10-13T18:29:33.320Z,1018.52
2022-10-13T18:34:40.949Z,1018.73
2022-10-13T18:39:48.541Z,1018.91
2022-10-13T18:44:56.150Z,1018.90
2022-10-13T18:50:03.891Z,1018.79
2022-10-13T18:55:11.490Z,1018.88
2022-10-13T19:00:19.100Z,1018.99
2022-10-13T19:05:26.738Z,1019.15
2022-10-13T19:10:34.280Z,1019.40
2022-10-13T19:15:41.938Z,1019.54
2022-10-13T19:20:49.733Z,1019.46
2022-10-13T19:25:57.375Z,1019.55
2022-10-13T19:31:04.995Z,1019.79
2022-10-13T19:36:12.328Z,1019.93
2022-10-13T19:41:19.805Z,1020.13
2022-10-13T19:46:27.526Z,1020.35
2022-10-13T19:51:36.193Z,1019.96
2022-10-13T19:56:43.776Z,1019.95
2022-10-13T20:01:51.902Z,1019.76
2022-10-13T20:06:59.557Z,1019.65
2022-10-13T20:12:07.232Z,1019.66
2022-10-13T20:17:14.583Z,1019.89
2022-10-13T20:22:21.784Z,1019.90
2022-10-13T20:27:29.026Z,1019.94
2022-10-13T20:32:36.295Z,1019.93
2022-10-13T20:37:43.514Z,1019.90
2022-10-13T20:42:50.649Z,1019.92
2022-10-13T20:47:58.449Z,1020.08
2022-10-13T20:53:05.703Z,1020.09
2022-10-13T20:58:12.948Z,1019.96
2022-10-13T21:03:20.324Z,1020.12
2022-10-13T21:08:27.568Z,1020.12
2022-10-13T21:13:34.719Z,1020.16
2022-10-13T21:18:41.945Z,1020.18
2022-10-13T21:23:49.155Z,1020.11
2022-10-13T21:28:56.447Z,1020.14
2022-10-13T21:34:03.544Z,1020.03
2022-10-13T21:39:12.819Z,1019.97
2022-10-13T21:44:20.047Z,1019.95
2022-10-13T21:49:27.306Z,1019.90
2022-10-13T21:54:34.587Z,1019.91
2022-10-13T21:59:41.747Z,1019.95
2022-10-13T22:04:48.959Z,1019.91
2022-10-13T22:09:56.229Z,1019.89
2022-10-13T22:15:03.382Z,1020.00
2022-10-13T22:20:10.547Z,1019.87
2022-10-13T22:25:19.602Z,1019.94
2022-10-13T22:30:26.808Z,1019.95
2022-10-13T22:35:34.031Z,1019.99
2022-10-13T22:40:41.323Z,1020.01
2022-10-13T22:45:48.508Z,1019.98
2022-10-13T22:50:55.743Z,1019.87
2022-10-13T22:56:03.001Z,1019.85
2022-10-13T23:01:10.242Z,1019.83
2022-10-13T23:06:17.464Z,1019.83
2022-10-13T23:11:24.721Z,1019.76
2022-10-13T23:16:31.946Z,1019.74
2022-10-13T23:21:39.177Z,1019.73
2022-10-13T23:26:46.522Z,1019.84
2022-10-13T23:31:53.653Z,1019.73
2022-10-13T23:37:00.861Z,1019.63
2022-10-13T23:42:08.082Z,1019.59
2022-10-13T23:47:18.786Z,1019.62
2022-10-13T23:52:25.541Z,1019.53
2022-10-13T23:57:32.777Z,1019.52
